sensor_id;sensor_type;location;lat;lon;timestamp;P1;durP1;ratioP1;P2;durP2;ratioP2
6725;SDS011;3400;48.506;11.692;2023-05-14T00:00:18;11.30;;;10.27;;
6725;SDS011;3400;48.506;11.692;2023-05-14T00:02:46;15.50;;;10.63;;
6725;SDS011;3400;48.506;11.692;2023-05-14T00:05:14;12.53;;;11.03;;
6725;SDS011;3400;48.506;11.692;2023-05-14T00:07:42;11.77;;;10.57;;
6725;SDS011;3400;48.506;11.692;2023-05-14T00:10:11;13.30;;;11.23;;
6725;SDS011;3400;48.506;11.692;2023-05-14T00:12:39;13.13;;;11.40;;
6725;SDS011;3400;48.506;11.692;2023-05-14T00:15:07;12.83;;;11.57;;
6725;SDS011;3400;48.506;11.692;2023-05-14T00:17:35;14.87;;;12.10;;
6725;SDS011;3400;48.506;11.692;2023-05-14T00:20:03;13.00;;;11.43;;
6725;SDS011;3400;48.506;11.692;2023-05-14T00:22:32;13.87;;;11.83;;
6725;SDS011;3400;48.506;11.692;2023-05-14T00:25:01;13.70;;;12.23;;
6725;SDS011;3400;48.506;11.692;2023-05-14T00:27:30;15.10;;;11.97;;
6725;SDS011;3400;48.506;11.692;2023-05-14T00:29:58;14.10;;;12.40;;
6725;SDS011;3400;48.506;11.692;2023-05-14T00:32:26;13.00;;;11.70;;
6725;SDS011;3400;48.506;11.692;2023-05-14T00:34:54;13.33;;;11.10;;
6725;SDS011;3400;48.506;11.692;2023-05-14T00:37:21;11.90;;;9.83;;
6725;SDS011;3400;48.506;11.692;2023-05-14T00:39:49;12.13;;;10.80;;
6725;SDS011;3400;48.506;11.692;2023-05-14T00:42:17;12.73;;;11.27;;
6725;SDS011;3400;48.506;11.692;2023-05-14T00:44:46;13.20;;;9.90;;
6725;SDS011;3400;48.506;11.692;2023-05-14T00:47:14;13.40;;;10.47;;
6725;SDS011;3400;48.506;11.692;2023-05-14T00:49:42;12.00;;;10.43;;
6725;SDS011;3400;48.506;11.692;2023-05-14T00:52:10;13.93;;;10.57;;
6725;SDS011;3400;48.506;11.692;2023-05-14T00:54:38;11.73;;;10.53;;
6725;SDS011;3400;48.506;11.692;2023-05-14T00:57:06;13.20;;;11.00;;
6725;SDS011;3400;48.506;11.692;2023-05-14T00:59:34;12.43;;;10.40;;
6725;SDS011;3400;48.506;11.692;2023-05-14T01:02:03;14.20;;;11.50;;
6725;SDS011;3400;48.506;11.692;2023-05-14T01:04:31;11.90;;;10.70;;
6725;SDS011;3400;48.506;11.692;2023-05-14T01:07:03;14.17;;;10.30;;
6725;SDS011;3400;48.506;11.692;2023-05-14T01:09:35;11.60;;;10.40;;
6725;SDS011;3400;48.506;11.692;2023-05-14T01:12:05;12.33;;;10.30;;
6725;SDS011;3400;48.506;11.692;2023-05-14T01:14:37;14.30;;;9.87;;
6725;SDS011;3400;48.506;11.692;2023-05-14T01:17:09;13.27;;;10.40;;
6725;SDS011;3400;48.506;11.692;2023-05-14T01:19:39;11.27;;;10.13;;
6725;SDS011;3400;48.506;11.692;2023-05-14T01:22:08;14.90;;;10.07;;
6725;SDS011;3400;48.506;11.692;2023-05-14T01:24:36;12.27;;;11.03;;
6725;SDS011;3400;48.506;11.692;2023-05-14T01:27:05;12.90;;;11.30;;
6725;SDS011;3400;48.506;11.692;2023-05-14T01:29:35;12.53;;;11.30;;
6725;SDS011;3400;48.506;11.692;2023-05-14T01:32:04;13.73;;;11.67;;
6725;SDS011;3400;48.506;11.692;2023-05-14T01:34:33;14.37;;;12.43;;
6725;SDS011;3400;48.506;11.692;2023-05-14T01:37:01;14.73;;;11.70;;
6725;SDS011;3400;48.506;11.692;2023-05-14T01:39:31;12.87;;;11.57;;
6725;SDS011;3400;48.506;11.692;2023-05-14T01:42:02;12.40;;;11.20;;
6725;SDS011;3400;48.506;11.692;2023-05-14T01:44:30;12.87;;;11.57;;
6725;SDS011;3400;48.506;11.692;2023-05-14T01:46:59;14.37;;;12.63;;
6725;SDS011;3400;48.506;11.692;2023-05-14T01:49:27;14.67;;;12.67;;
6725;SDS011;3400;48.506;11.692;2023-05-14T01:51:55;14.47;;;12.90;;
6725;SDS011;3400;48.506;11.692;2023-05-14T01:54:23;15.27;;;13.40;;
6725;SDS011;3400;48.506;11.692;2023-05-14T01:56:52;23.50;;;13.77;;
6725;SDS011;3400;48.506;11.692;2023-05-14T01:59:19;14.23;;;12.83;;
6725;SDS011;3400;48.506;11.692;2023-05-14T02:01:47;15.10;;;12.83;;
6725;SDS011;3400;48.506;11.692;2023-05-14T02:04:15;16.87;;;14.73;;
6725;SDS011;3400;48.506;11.692;2023-05-14T02:06:43;13.40;;;12.13;;
6725;SDS011;3400;48.506;11.692;2023-05-14T02:09:11;14.60;;;13.20;;
6725;SDS011;3400;48.506;11.692;2023-05-14T02:11:39;16.63;;;14.93;;
6725;SDS011;3400;48.506;11.692;2023-05-14T02:14:08;19.03;;;15.27;;
6725;SDS011;3400;48.506;11.692;2023-05-14T02:16:36;17.70;;;14.27;;
6725;SDS011;3400;48.506;11.692;2023-05-14T02:19:03;16.50;;;14.43;;
6725;SDS011;3400;48.506;11.692;2023-05-14T02:21:31;18.93;;;15.60;;
6725;SDS011;3400;48.506;11.692;2023-05-14T02:23:59;17.70;;;14.93;;
6725;SDS011;3400;48.506;11.692;2023-05-14T02:26:27;19.20;;;16.27;;
6725;SDS011;3400;48.506;11.692;2023-05-14T02:28:54;18.10;;;15.53;;
6725;SDS011;3400;48.506;11.692;2023-05-14T02:31:23;16.55;;;14.30;;
6725;SDS011;3400;48.506;11.692;2023-05-14T02:33:51;15.67;;;13.80;;
6725;SDS011;3400;48.506;11.692;2023-05-14T02:36:19;17.33;;;15.53;;
6725;SDS011;3400;48.506;11.692;2023-05-14T02:38:47;17.60;;;15.10;;
6725;SDS011;3400;48.506;11.692;2023-05-14T02:41:14;19.03;;;16.23;;
6725;SDS011;3400;48.506;11.692;2023-05-14T02:43:42;15.67;;;13.60;;
6725;SDS011;3400;48.506;11.692;2023-05-14T02:46:10;17.63;;;15.40;;
6725;SDS011;3400;48.506;11.692;2023-05-14T02:48:39;17.87;;;15.97;;
6725;SDS011;3400;48.506;11.692;2023-05-14T02:51:06;16.43;;;14.37;;
6725;SDS011;3400;48.506;11.692;2023-05-14T02:53:34;16.13;;;14.17;;
6725;SDS011;3400;48.506;11.692;2023-05-14T02:56:02;16.17;;;14.57;;
6725;SDS011;3400;48.506;11.692;2023-05-14T02:58:30;15.90;;;14.20;;
6725;SDS011;3400;48.506;11.692;2023-05-14T03:00:58;16.23;;;14.53;;
6725;SDS011;3400;48.506;11.692;2023-05-14T03:03:27;15.97;;;14.17;;
6725;SDS011;3400;48.506;11.692;2023-05-14T03:05:57;16.33;;;14.37;;
6725;SDS011;3400;48.506;11.692;2023-05-14T03:08:25;16.50;;;14.80;;
6725;SDS011;3400;48.506;11.692;2023-05-14T03:10:52;15.50;;;13.90;;
6725;SDS011;3400;48.506;11.692;2023-05-14T03:13:20;17.30;;;14.00;;
6725;SDS011;3400;48.506;11.692;2023-05-14T03:15:48;15.10;;;13.53;;
6725;SDS011;3400;48.506;11.692;2023-05-14T03:18:19;14.67;;;13.17;;
6725;SDS011;3400;48.506;11.692;2023-05-14T03:20:47;16.47;;;12.80;;
6725;SDS011;3400;48.506;11.692;2023-05-14T03:23:16;13.90;;;12.40;;
6725;SDS011;3400;48.506;11.692;2023-05-14T03:25:44;14.80;;;13.30;;
6725;SDS011;3400;48.506;11.692;2023-05-14T03:28:11;14.47;;;13.07;;
6725;SDS011;3400;48.506;11.692;2023-05-14T03:30:39;14.80;;;13.30;;
6725;SDS011;3400;48.506;11.692;2023-05-14T03:33:07;14.63;;;13.20;;
6725;SDS011;3400;48.506;11.692;2023-05-14T03:35:35;15.70;;;12.97;;
6725;SDS011;3400;48.506;11.692;2023-05-14T03:38:02;14.60;;;13.10;;
6725;SDS011;3400;48.506;11.692;2023-05-14T03:40:33;14.67;;;13.27;;
6725;SDS011;3400;48.506;11.692;2023-05-14T03:43:01;16.90;;;13.60;;
6725;SDS011;3400;48.506;11.692;2023-05-14T03:45:28;16.13;;;14.20;;
6725;SDS011;3400;48.506;11.692;2023-05-14T03:47:58;16.53;;;14.30;;
6725;SDS011;3400;48.506;11.692;2023-05-14T03:50:25;14.83;;;13.27;;
6725;SDS011;3400;48.506;11.692;2023-05-14T03:52:53;14.93;;;13.43;;
6725;SDS011;3400;48.506;11.692;2023-05-14T03:55:22;17.07;;;14.17;;
6725;SDS011;3400;48.506;11.692;2023-05-14T03:57:51;15.50;;;13.50;;
6725;SDS011;3400;48.506;11.692;2023-05-14T04:00:19;16.60;;;14.37;;
6725;SDS011;3400;48.506;11.692;2023-05-14T04:02:46;15.93;;;14.33;;
6725;SDS011;3400;48.506;11.692;2023-05-14T04:05:14;15.10;;;13.53;;
6725;SDS011;3400;48.506;11.692;2023-05-14T04:07:42;15.60;;;13.90;;
6725;SDS011;3400;48.506;11.692;2023-05-14T04:10:11;16.67;;;14.93;;
6725;SDS011;3400;48.506;11.692;2023-05-14T04:12:39;19.80;;;14.57;;
6725;SDS011;3400;48.506;11.692;2023-05-14T04:15:09;15.80;;;14.10;;
6725;SDS011;3400;48.506;11.692;2023-05-14T04:17:37;15.77;;;14.07;;
6725;SDS011;3400;48.506;11.692;2023-05-14T04:20:05;18.43;;;14.43;;
6725;SDS011;3400;48.506;11.692;2023-05-14T04:22:33;16.03;;;14.33;;
6725;SDS011;3400;48.506;11.692;2023-05-14T04:25:01;16.20;;;14.27;;
6725;SDS011;3400;48.506;11.692;2023-05-14T04:27:29;16.60;;;14.13;;
6725;SDS011;3400;48.506;11.692;2023-05-14T04:29:57;14.60;;;13.03;;
6725;SDS011;3400;48.506;11.692;2023-05-14T04:32:26;16.43;;;14.57;;
6725;SDS011;3400;48.506;11.692;2023-05-14T04:34:54;13.93;;;12.53;;
6725;SDS011;3400;48.506;11.692;2023-05-14T04:37:22;15.23;;;13.20;;
6725;SDS011;3400;48.506;11.692;2023-05-14T04:39:50;16.57;;;12.33;;
6725;SDS011;3400;48.506;11.692;2023-05-14T04:42:18;15.57;;;12.87;;
6725;SDS011;3400;48.506;11.692;2023-05-14T04:44:46;15.10;;;12.73;;
6725;SDS011;3400;48.506;11.692;2023-05-14T04:47:16;13.00;;;11.67;;
6725;SDS011;3400;48.506;11.692;2023-05-14T04:49:45;14.75;;;13.35;;
6725;SDS011;3400;48.506;11.692;2023-05-14T04:52:13;13.73;;;11.87;;
6725;SDS011;3400;48.506;11.692;2023-05-14T04:54:41;13.07;;;11.70;;
6725;SDS011;3400;48.506;11.692;2023-05-14T04:57:08;13.60;;;12.20;;
6725;SDS011;3400;48.506;11.692;2023-05-14T04:59:36;12.40;;;11.20;;
6725;SDS011;3400;48.506;11.692;2023-05-14T05:02:04;12.97;;;11.47;;
6725;SDS011;3400;48.506;11.692;2023-05-14T05:04:32;13.73;;;10.97;;
6725;SDS011;3400;48.506;11.692;2023-05-14T05:07:01;11.80;;;10.60;;
6725;SDS011;3400;48.506;11.692;2023-05-14T05:09:30;12.00;;;10.37;;
6725;SDS011;3400;48.506;11.692;2023-05-14T05:11:58;12.20;;;10.90;;
6725;SDS011;3400;48.506;11.692;2023-05-14T05:14:26;12.17;;;10.80;;
6725;SDS011;3400;48.506;11.692;2023-05-14T05:16:54;11.47;;;10.27;;
6725;SDS011;3400;48.506;11.692;2023-05-14T05:19:22;11.63;;;10.47;;
6725;SDS011;3400;48.506;11.692;2023-05-14T05:21:49;11.57;;;10.37;;
6725;SDS011;3400;48.506;11.692;2023-05-14T05:24:18;11.70;;;10.50;;
6725;SDS011;3400;48.506;11.692;2023-05-14T05:26:46;11.77;;;10.57;;
6725;SDS011;3400;48.506;11.692;2023-05-14T05:29:14;10.27;;;9.27;;
6725;SDS011;3400;48.506;11.692;2023-05-14T05:31:42;11.77;;;10.53;;
6725;SDS011;3400;48.506;11.692;2023-05-14T05:34:10;11.23;;;10.20;;
6725;SDS011;3400;48.506;11.692;2023-05-14T05:36:38;10.87;;;9.77;;
6725;SDS011;3400;48.506;11.692;2023-05-14T05:39:05;10.27;;;9.37;;
6725;SDS011;3400;48.506;11.692;2023-05-14T05:41:34;10.63;;;9.63;;
6725;SDS011;3400;48.506;11.692;2023-05-14T05:44:02;11.60;;;10.00;;
6725;SDS011;3400;48.506;11.692;2023-05-14T05:46:30;10.43;;;9.23;;
6725;SDS011;3400;48.506;11.692;2023-05-14T05:48:57;10.63;;;9.63;;
6725;SDS011;3400;48.506;11.692;2023-05-14T05:51:26;10.57;;;9.57;;
6725;SDS011;3400;48.506;11.692;2023-05-14T05:53:54;10.47;;;9.30;;
6725;SDS011;3400;48.506;11.692;2023-05-14T05:56:22;10.27;;;9.20;;
6725;SDS011;3400;48.506;11.692;2023-05-14T05:58:51;10.37;;;9.47;;
6725;SDS011;3400;48.506;11.692;2023-05-14T06:01:19;9.63;;;8.53;;
6725;SDS011;3400;48.506;11.692;2023-05-14T06:03:47;10.73;;;9.73;;
6725;SDS011;3400;48.506;11.692;2023-05-14T06:06:14;10.90;;;9.80;;
6725;SDS011;3400;48.506;11.692;2023-05-14T06:08:42;10.27;;;9.27;;
6725;SDS011;3400;48.506;11.692;2023-05-14T06:11:10;10.90;;;9.40;;
6725;SDS011;3400;48.506;11.692;2023-05-14T06:13:37;9.97;;;8.97;;
6725;SDS011;3400;48.506;11.692;2023-05-14T06:16:07;9.33;;;8.33;;
6725;SDS011;3400;48.506;11.692;2023-05-14T06:18:35;10.57;;;9.23;;
6725;SDS011;3400;48.506;11.692;2023-05-14T06:21:03;9.80;;;8.63;;
6725;SDS011;3400;48.506;11.692;2023-05-14T06:23:36;11.33;;;10.20;;
6725;SDS011;3400;48.506;11.692;2023-05-14T06:26:04;10.20;;;9.20;;
6725;SDS011;3400;48.506;11.692;2023-05-14T06:28:32;34.10;;;14.10;;
6725;SDS011;3400;48.506;11.692;2023-05-14T06:31:00;17.77;;;15.60;;
6725;SDS011;3400;48.506;11.692;2023-05-14T06:33:29;15.00;;;12.73;;
6725;SDS011;3400;48.506;11.692;2023-05-14T06:35:57;11.70;;;10.50;;
6725;SDS011;3400;48.506;11.692;2023-05-14T06:38:24;11.27;;;10.07;;
6725;SDS011;3400;48.506;11.692;2023-05-14T06:40:52;12.13;;;10.83;;
6725;SDS011;3400;48.506;11.692;2023-05-14T06:43:23;11.20;;;10.10;;
6725;SDS011;3400;48.506;11.692;2023-05-14T06:45:51;11.77;;;10.40;;
6725;SDS011;3400;48.506;11.692;2023-05-14T06:48:20;11.57;;;10.37;;
6725;SDS011;3400;48.506;11.692;2023-05-14T06:50:49;12.00;;;10.90;;
6725;SDS011;3400;48.506;11.692;2023-05-14T06:53:16;11.80;;;10.70;;
6725;SDS011;3400;48.506;11.692;2023-05-14T06:55:45;11.87;;;10.70;;
6725;SDS011;3400;48.506;11.692;2023-05-14T06:58:13;11.57;;;10.57;;
6725;SDS011;3400;48.506;11.692;2023-05-14T07:00:41;11.40;;;10.30;;
6725;SDS011;3400;48.506;11.692;2023-05-14T07:03:15;11.67;;;10.47;;
6725;SDS011;3400;48.506;11.692;2023-05-14T07:05:43;12.23;;;10.57;;
6725;SDS011;3400;48.506;11.692;2023-05-14T07:08:13;22.97;;;16.53;;
6725;SDS011;3400;48.506;11.692;2023-05-14T07:10:40;17.13;;;15.33;;
6725;SDS011;3400;48.506;11.692;2023-05-14T07:13:08;13.07;;;11.67;;
6725;SDS011;3400;48.506;11.692;2023-05-14T07:15:36;11.60;;;10.40;;
6725;SDS011;3400;48.506;11.692;2023-05-14T07:18:04;11.70;;;10.50;;
6725;SDS011;3400;48.506;11.692;2023-05-14T07:20:32;11.77;;;10.57;;
6725;SDS011;3400;48.506;11.692;2023-05-14T07:23:00;12.27;;;11.07;;
6725;SDS011;3400;48.506;11.692;2023-05-14T07:25:29;11.47;;;10.27;;
6725;SDS011;3400;48.506;11.692;2023-05-14T07:27:57;12.03;;;10.93;;
6725;SDS011;3400;48.506;11.692;2023-05-14T07:30:25;12.10;;;10.90;;
6725;SDS011;3400;48.506;11.692;2023-05-14T07:32:52;12.43;;;11.00;;
6725;SDS011;3400;48.506;11.692;2023-05-14T07:35:20;11.07;;;10.00;;
6725;SDS011;3400;48.506;11.692;2023-05-14T07:37:48;11.13;;;9.83;;
6725;SDS011;3400;48.506;11.692;2023-05-14T07:40:16;12.20;;;11.10;;
6725;SDS011;3400;48.506;11.692;2023-05-14T07:42:45;11.80;;;10.70;;
6725;SDS011;3400;48.506;11.692;2023-05-14T07:45:13;11.77;;;10.67;;
6725;SDS011;3400;48.506;11.692;2023-05-14T07:47:41;12.57;;;11.27;;
6725;SDS011;3400;48.506;11.692;2023-05-14T07:50:09;12.33;;;11.13;;
6725;SDS011;3400;48.506;11.692;2023-05-14T07:52:37;13.07;;;11.87;;
6725;SDS011;3400;48.506;11.692;2023-05-14T07:55:05;11.60;;;10.60;;
6725;SDS011;3400;48.506;11.692;2023-05-14T07:57:33;11.40;;;10.30;;
6725;SDS011;3400;48.506;11.692;2023-05-14T08:00:03;12.17;;;10.90;;
6725;SDS011;3400;48.506;11.692;2023-05-14T08:02:38;11.33;;;10.27;;
6725;SDS011;3400;48.506;11.692;2023-05-14T08:05:07;12.57;;;10.77;;
6725;SDS011;3400;48.506;11.692;2023-05-14T08:07:35;11.40;;;10.30;;
6725;SDS011;3400;48.506;11.692;2023-05-14T08:10:02;10.67;;;9.73;;
6725;SDS011;3400;48.506;11.692;2023-05-14T08:12:31;11.63;;;10.53;;
6725;SDS011;3400;48.506;11.692;2023-05-14T08:14:59;11.20;;;10.10;;
6725;SDS011;3400;48.506;11.692;2023-05-14T08:17:28;11.07;;;10.07;;
6725;SDS011;3400;48.506;11.692;2023-05-14T08:19:56;11.43;;;10.37;;
6725;SDS011;3400;48.506;11.692;2023-05-14T08:22:23;10.83;;;9.00;;
6725;SDS011;3400;48.506;11.692;2023-05-14T08:24:51;10.50;;;9.60;;
6725;SDS011;3400;48.506;11.692;2023-05-14T08:27:18;9.83;;;8.87;;
6725;SDS011;3400;48.506;11.692;2023-05-14T08:29:47;10.77;;;9.77;;
6725;SDS011;3400;48.506;11.692;2023-05-14T08:32:16;9.17;;;8.37;;
6725;SDS011;3400;48.506;11.692;2023-05-14T08:34:45;8.77;;;7.87;;
6725;SDS011;3400;48.506;11.692;2023-05-14T08:37:12;8.80;;;7.90;;
6725;SDS011;3400;48.506;11.692;2023-05-14T08:39:40;8.47;;;7.70;;
6725;SDS011;3400;48.506;11.692;2023-05-14T08:42:08;7.47;;;6.80;;
6725;SDS011;3400;48.506;11.692;2023-05-14T08:44:41;7.63;;;7.03;;
6725;SDS011;3400;48.506;11.692;2023-05-14T08:47:11;7.77;;;6.97;;
6725;SDS011;3400;48.506;11.692;2023-05-14T08:49:42;7.10;;;6.50;;
6725;SDS011;3400;48.506;11.692;2023-05-14T08:52:11;6.50;;;5.90;;
6725;SDS011;3400;48.506;11.692;2023-05-14T08:54:39;6.40;;;5.90;;
6725;SDS011;3400;48.506;11.692;2023-05-14T08:57:08;6.90;;;6.30;;
6725;SDS011;3400;48.506;11.692;2023-05-14T08:59:36;8.13;;;6.33;;
6725;SDS011;3400;48.506;11.692;2023-05-14T09:02:04;6.70;;;6.10;;
6725;SDS011;3400;48.506;11.692;2023-05-14T09:04:32;6.27;;;5.77;;
6725;SDS011;3400;48.506;11.692;2023-05-14T09:07:00;5.70;;;5.20;;
6725;SDS011;3400;48.506;11.692;2023-05-14T09:09:30;7.00;;;6.33;;
6725;SDS011;3400;48.506;11.692;2023-05-14T09:11:59;6.37;;;5.77;;
6725;SDS011;3400;48.506;11.692;2023-05-14T09:14:32;6.33;;;5.83;;
6725;SDS011;3400;48.506;11.692;2023-05-14T09:17:00;10.53;;;6.53;;
6725;SDS011;3400;48.506;11.692;2023-05-14T09:19:28;7.00;;;6.30;;
6725;SDS011;3400;48.506;11.692;2023-05-14T09:21:57;5.77;;;5.27;;
6725;SDS011;3400;48.506;11.692;2023-05-14T09:24:25;6.00;;;5.43;;
6725;SDS011;3400;48.506;11.692;2023-05-14T09:26:55;5.70;;;5.20;;
6725;SDS011;3400;48.506;11.692;2023-05-14T09:29:24;6.30;;;5.70;;
6725;SDS011;3400;48.506;11.692;2023-05-14T09:31:52;7.13;;;6.50;;
6725;SDS011;3400;48.506;11.692;2023-05-14T09:34:24;7.57;;;6.23;;
6725;SDS011;3400;48.506;11.692;2023-05-14T09:36:53;5.90;;;5.40;;
6725;SDS011;3400;48.506;11.692;2023-05-14T09:39:21;6.40;;;5.43;;
6725;SDS011;3400;48.506;11.692;2023-05-14T09:41:50;6.17;;;5.57;;
6725;SDS011;3400;48.506;11.692;2023-05-14T09:44:19;8.17;;;5.13;;
6725;SDS011;3400;48.506;11.692;2023-05-14T09:46:47;6.00;;;5.50;;
6725;SDS011;3400;48.506;11.692;2023-05-14T09:49:19;5.50;;;5.00;;
6725;SDS011;3400;48.506;11.692;2023-05-14T09:51:47;6.27;;;5.67;;
6725;SDS011;3400;48.506;11.692;2023-05-14T09:54:15;5.87;;;5.37;;
6725;SDS011;3400;48.506;11.692;2023-05-14T09:56:43;5.70;;;5.17;;
6725;SDS011;3400;48.506;11.692;2023-05-14T09:59:11;5.43;;;4.93;;
6725;SDS011;3400;48.506;11.692;2023-05-14T10:01:40;6.20;;;5.67;;
6725;SDS011;3400;48.506;11.692;2023-05-14T10:04:08;5.30;;;4.90;;
6725;SDS011;3400;48.506;11.692;2023-05-14T10:06:37;6.27;;;5.80;;
6725;SDS011;3400;48.506;11.692;2023-05-14T10:09:08;6.60;;;6.00;;
6725;SDS011;3400;48.506;11.692;2023-05-14T10:11:37;6.97;;;6.30;;
6725;SDS011;3400;48.506;11.692;2023-05-14T10:14:06;6.53;;;5.97;;
6725;SDS011;3400;48.506;11.692;2023-05-14T10:16:36;7.23;;;6.63;;
6725;SDS011;3400;48.506;11.692;2023-05-14T10:19:07;6.80;;;6.20;;
6725;SDS011;3400;48.506;11.692;2023-05-14T10:21:35;6.90;;;6.30;;
6725;SDS011;3400;48.506;11.692;2023-05-14T10:24:03;6.83;;;6.13;;
6725;SDS011;3400;48.506;11.692;2023-05-14T10:26:33;6.50;;;5.93;;
6725;SDS011;3400;48.506;11.692;2023-05-14T10:29:03;7.47;;;6.87;;
6725;SDS011;3400;48.506;11.692;2023-05-14T10:31:44;10.40;;;7.40;;
6725;SDS011;3400;48.506;11.692;2023-05-14T10:34:32;7.77;;;6.93;;
6725;SDS011;3400;48.506;11.692;2023-05-14T10:37:02;8.03;;;6.80;;
6725;SDS011;3400;48.506;11.692;2023-05-14T10:39:43;7.77;;;7.07;;
6725;SDS011;3400;48.506;11.692;2023-05-14T10:42:11;7.27;;;6.67;;
6725;SDS011;3400;48.506;11.692;2023-05-14T10:44:41;7.47;;;6.87;;
6725;SDS011;3400;48.506;11.692;2023-05-14T10:47:12;7.13;;;6.50;;
6725;SDS011;3400;48.506;11.692;2023-05-14T10:49:43;7.07;;;6.43;;
6725;SDS011;3400;48.506;11.692;2023-05-14T10:52:14;6.40;;;5.87;;
6725;SDS011;3400;48.506;11.692;2023-05-14T10:54:49;6.93;;;6.33;;
6725;SDS011;3400;48.506;11.692;2023-05-14T10:57:17;6.37;;;5.80;;
6725;SDS011;3400;48.506;11.692;2023-05-14T10:59:46;6.27;;;5.67;;
6725;SDS011;3400;48.506;11.692;2023-05-14T11:02:17;5.50;;;5.00;;
6725;SDS011;3400;48.506;11.692;2023-05-14T11:04:52;5.53;;;5.13;;
6725;SDS011;3400;48.506;11.692;2023-05-14T11:10:22;5.83;;;5.23;;
6725;SDS011;3400;48.506;11.692;2023-05-14T11:12:54;5.43;;;4.93;;
6725;SDS011;3400;48.506;11.692;2023-05-14T11:15:24;5.77;;;5.10;;
6725;SDS011;3400;48.506;11.692;2023-05-14T11:17:53;5.07;;;4.67;;
6725;SDS011;3400;48.506;11.692;2023-05-14T11:20:22;5.67;;;5.17;;
6725;SDS011;3400;48.506;11.692;2023-05-14T11:22:49;5.07;;;4.67;;
6725;SDS011;3400;48.506;11.692;2023-05-14T11:25:17;5.27;;;4.87;;
6725;SDS011;3400;48.506;11.692;2023-05-14T11:27:46;4.47;;;4.13;;
6725;SDS011;3400;48.506;11.692;2023-05-14T11:30:14;4.97;;;4.57;;
6725;SDS011;3400;48.506;11.692;2023-05-14T11:32:42;5.53;;;5.03;;
6725;SDS011;3400;48.506;11.692;2023-05-14T11:35:11;4.93;;;4.53;;
6725;SDS011;3400;48.506;11.692;2023-05-14T11:37:40;5.33;;;4.90;;
6725;SDS011;3400;48.506;11.692;2023-05-14T11:40:08;5.50;;;5.00;;
6725;SDS011;3400;48.506;11.692;2023-05-14T11:42:40;5.03;;;4.63;;
6725;SDS011;3400;48.506;11.692;2023-05-14T11:45:09;4.20;;;3.87;;
6725;SDS011;3400;48.506;11.692;2023-05-14T11:47:37;5.50;;;4.97;;
6725;SDS011;3400;48.506;11.692;2023-05-14T11:50:05;4.67;;;4.27;;
6725;SDS011;3400;48.506;11.692;2023-05-14T11:52:36;6.20;;;5.20;;
6725;SDS011;3400;48.506;11.692;2023-05-14T11:55:06;6.13;;;5.63;;
6725;SDS011;3400;48.506;11.692;2023-05-14T11:57:36;6.17;;;5.60;;
6725;SDS011;3400;48.506;11.692;2023-05-14T12:00:06;6.97;;;6.30;;
6725;SDS011;3400;48.506;11.692;2023-05-14T12:02:34;7.07;;;6.43;;
6725;SDS011;3400;48.506;11.692;2023-05-14T12:05:03;7.10;;;6.50;;
6725;SDS011;3400;48.506;11.692;2023-05-14T12:07:31;6.90;;;6.30;;
6725;SDS011;3400;48.506;11.692;2023-05-14T12:09:59;6.20;;;5.70;;
6725;SDS011;3400;48.506;11.692;2023-05-14T12:12:33;6.80;;;6.20;;
6725;SDS011;3400;48.506;11.692;2023-05-14T12:15:01;6.93;;;6.30;;
6725;SDS011;3400;48.506;11.692;2023-05-14T12:17:28;6.33;;;5.70;;
6725;SDS011;3400;48.506;11.692;2023-05-14T12:19:56;7.30;;;5.70;;
6725;SDS011;3400;48.506;11.692;2023-05-14T12:22:24;10.90;;;6.17;;
6725;SDS011;3400;48.506;11.692;2023-05-14T12:24:52;7.30;;;6.70;;
6725;SDS011;3400;48.506;11.692;2023-05-14T12:27:20;6.77;;;6.10;;
6725;SDS011;3400;48.506;11.692;2023-05-14T12:29:50;5.97;;;5.47;;
6725;SDS011;3400;48.506;11.692;2023-05-14T12:32:24;7.10;;;5.57;;
6725;SDS011;3400;48.506;11.692;2023-05-14T12:34:52;5.20;;;4.80;;
6725;SDS011;3400;48.506;11.692;2023-05-14T12:37:20;5.37;;;4.97;;
6725;SDS011;3400;48.506;11.692;2023-05-14T12:39:47;5.20;;;4.80;;
6725;SDS011;3400;48.506;11.692;2023-05-14T12:42:15;3.07;;;2.87;;
6725;SDS011;3400;48.506;11.692;2023-05-14T12:44:43;3.50;;;3.20;;
6725;SDS011;3400;48.506;11.692;2023-05-14T12:47:12;3.93;;;3.33;;
6725;SDS011;3400;48.506;11.692;2023-05-14T12:49:39;3.70;;;3.40;;
6725;SDS011;3400;48.506;11.692;2023-05-14T12:52:07;3.00;;;2.80;;
6725;SDS011;3400;48.506;11.692;2023-05-14T12:54:35;3.30;;;3.10;;
6725;SDS011;3400;48.506;11.692;2023-05-14T12:57:05;3.87;;;3.33;;
6725;SDS011;3400;48.506;11.692;2023-05-14T12:59:32;3.30;;;3.10;;
6725;SDS011;3400;48.506;11.692;2023-05-14T13:02:00;3.30;;;3.00;;
6725;SDS011;3400;48.506;11.692;2023-05-14T13:04:29;2.93;;;2.73;;
6725;SDS011;3400;48.506;11.692;2023-05-14T13:06:57;2.60;;;2.50;;
6725;SDS011;3400;48.506;11.692;2023-05-14T13:09:25;3.50;;;3.30;;
6725;SDS011;3400;48.506;11.692;2023-05-14T13:11:53;4.33;;;3.07;;
6725;SDS011;3400;48.506;11.692;2023-05-14T13:14:21;2.93;;;2.60;;
6725;SDS011;3400;48.506;11.692;2023-05-14T13:16:49;2.50;;;2.40;;
6725;SDS011;3400;48.506;11.692;2023-05-14T13:19:20;2.53;;;2.43;;
6725;SDS011;3400;48.506;11.692;2023-05-14T13:21:49;2.93;;;2.73;;
6725;SDS011;3400;48.506;11.692;2023-05-14T13:24:17;3.20;;;2.00;;
6725;SDS011;3400;48.506;11.692;2023-05-14T13:26:44;2.40;;;2.30;;
6725;SDS011;3400;48.506;11.692;2023-05-14T13:29:12;2.90;;;2.70;;
6725;SDS011;3400;48.506;11.692;2023-05-14T13:31:40;2.80;;;2.60;;
6725;SDS011;3400;48.506;11.692;2023-05-14T13:34:08;3.03;;;2.83;;
6725;SDS011;3400;48.506;11.692;2023-05-14T13:36:36;2.67;;;2.47;;
6725;SDS011;3400;48.506;11.692;2023-05-14T13:39:05;2.40;;;2.30;;
6725;SDS011;3400;48.506;11.692;2023-05-14T13:41:33;2.60;;;2.40;;
6725;SDS011;3400;48.506;11.692;2023-05-14T13:44:02;2.20;;;2.10;;
6725;SDS011;3400;48.506;11.692;2023-05-14T13:46:30;2.17;;;1.90;;
6725;SDS011;3400;48.506;11.692;2023-05-14T13:48:58;2.33;;;2.23;;
6725;SDS011;3400;48.506;11.692;2023-05-14T13:51:26;2.73;;;2.53;;
6725;SDS011;3400;48.506;11.692;2023-05-14T13:53:53;2.10;;;1.90;;
6725;SDS011;3400;48.506;11.692;2023-05-14T13:56:23;1.97;;;1.77;;
6725;SDS011;3400;48.506;11.692;2023-05-14T13:58:50;1.93;;;1.83;;
6725;SDS011;3400;48.506;11.692;2023-05-14T14:01:18;1.87;;;1.77;;
6725;SDS011;3400;48.506;11.692;2023-05-14T14:03:47;1.70;;;1.60;;
6725;SDS011;3400;48.506;11.692;2023-05-14T14:06:15;1.70;;;1.60;;
6725;SDS011;3400;48.506;11.692;2023-05-14T14:08:43;1.87;;;1.77;;
6725;SDS011;3400;48.506;11.692;2023-05-14T14:11:11;1.90;;;1.80;;
6725;SDS011;3400;48.506;11.692;2023-05-14T14:13:40;1.60;;;1.50;;
6725;SDS011;3400;48.506;11.692;2023-05-14T14:16:08;1.93;;;1.73;;
6725;SDS011;3400;48.506;11.692;2023-05-14T14:18:36;2.10;;;1.70;;
6725;SDS011;3400;48.506;11.692;2023-05-14T14:21:03;2.10;;;2.00;;
6725;SDS011;3400;48.506;11.692;2023-05-14T14:23:31;5.73;;;1.87;;
6725;SDS011;3400;48.506;11.692;2023-05-14T14:25:59;1.83;;;1.73;;
6725;SDS011;3400;48.506;11.692;2023-05-14T14:28:30;2.00;;;1.90;;
6725;SDS011;3400;48.506;11.692;2023-05-14T14:30:59;1.90;;;1.80;;
6725;SDS011;3400;48.506;11.692;2023-05-14T14:33:26;1.97;;;1.87;;
6725;SDS011;3400;48.506;11.692;2023-05-14T14:35:54;1.80;;;1.70;;
6725;SDS011;3400;48.506;11.692;2023-05-14T14:38:23;2.13;;;1.97;;
6725;SDS011;3400;48.506;11.692;2023-05-14T14:40:50;3.10;;;1.80;;
6725;SDS011;3400;48.506;11.692;2023-05-14T14:43:19;2.10;;;2.00;;
6725;SDS011;3400;48.506;11.692;2023-05-14T14:45:46;2.13;;;2.03;;
6725;SDS011;3400;48.506;11.692;2023-05-14T14:48:22;2.40;;;2.20;;
6725;SDS011;3400;48.506;11.692;2023-05-14T14:50:51;1.90;;;1.73;;
6725;SDS011;3400;48.506;11.692;2023-05-14T14:53:19;2.00;;;1.90;;
6725;SDS011;3400;48.506;11.692;2023-05-14T14:55:46;2.27;;;2.07;;
6725;SDS011;3400;48.506;11.692;2023-05-14T14:58:14;3.47;;;1.80;;